Enter the Airport ICAO Code

Search by Airport or City

Current Weather

LEMD | Adolfo Suárez Madrid–Barajas Airport

Madrid, Spain

Last Update 5 Minutes Ago

Fog Banks

Temperature of 06 ºC

Calm Wind

Temperature

06 ºC

Dew Point Temperature

06 ºC

Relative Humidity

100 %

Wind Direction

None

Wind Velocity

0 km/h (0 kt)

Gusts

None

Visibility

Reduced to 1.1 Kilometers

Sea Level Pressure

1027 hPa (Hectopascals)

Layers of Clouds

None

METAR LEMD 090300Z 00000KT 1100 0500S R32L/1800D R32R/1800N BCFG VV001 06/06 Q1027 R88/29//95 NOSIG

Weather Forecast

LEMD | Adolfo Suárez Madrid–Barajas Airport

Madrid, Spain

Forecast valid for the next 27 Hours

From now on it is expected:

Mist

Light to Moderate Winds from Variable Directions

From now on it is expected 7 hours with intermittent periods of:

Fog

In 7 to 9 hours it is expected the begining of:

Partly Cloudy Sky

Maximum Temperature

10 ºC in 12 Hours

Minimum Temperature

01 ºC in 3 Hours

TAF LEMD 082300Z 0900/1006 VRB05KT 3000 BR BKN005 TX10/0915Z TN01/0906Z PROB40 TEMPO 0901/0910 0300 FG BECMG 0910/0912 9999 NSW SCT010